sensor_id;sensor_type;location;lat;lon;timestamp;temperature;humidity
43581;DHT22;29175;51.030;4.606;2023-06-19T00:02:11;21.20;99.80
43581;DHT22;29175;51.030;4.606;2023-06-19T00:04:36;21.10;99.90
43581;DHT22;29175;51.030;4.606;2023-06-19T00:07:03;20.90;99.90
43581;DHT22;29175;51.030;4.606;2023-06-19T00:09:29;21.00;99.90
43581;DHT22;29175;51.030;4.606;2023-06-19T00:11:55;20.90;99.90
43581;DHT22;29175;51.030;4.606;2023-06-19T00:14:21;20.90;99.90
43581;DHT22;29175;51.030;4.606;2023-06-19T00:16:47;20.90;99.90
43581;DHT22;29175;51.030;4.606;2023-06-19T00:19:12;20.90;99.90
43581;DHT22;29175;51.030;4.606;2023-06-19T00:21:38;20.80;99.90
43581;DHT22;29175;51.030;4.606;2023-06-19T00:24:04;20.80;99.90
43581;DHT22;29175;51.030;4.606;2023-06-19T00:26:30;20.80;99.90
43581;DHT22;29175;51.030;4.606;2023-06-19T00:28:56;20.60;99.90
43581;DHT22;29175;51.030;4.606;2023-06-19T00:31:22;20.60;99.90
43581;DHT22;29175;51.030;4.606;2023-06-19T00:33:48;20.50;99.90
43581;DHT22;29175;51.030;4.606;2023-06-19T00:36:16;20.60;99.90
43581;DHT22;29175;51.030;4.606;2023-06-19T00:38:45;20.50;99.90
43581;DHT22;29175;51.030;4.606;2023-06-19T00:41:12;20.60;99.90
43581;DHT22;29175;51.030;4.606;2023-06-19T00:43:38;20.70;99.90
43581;DHT22;29175;51.030;4.606;2023-06-19T00:46:04;20.90;99.90
43581;DHT22;29175;51.030;4.606;2023-06-19T00:48:30;20.90;99.90
43581;DHT22;29175;51.030;4.606;2023-06-19T00:50:57;21.00;99.90
43581;DHT22;29175;51.030;4.606;2023-06-19T00:53:24;21.00;99.90
43581;DHT22;29175;51.030;4.606;2023-06-19T00:55:54;21.00;99.90
43581;DHT22;29175;51.030;4.606;2023-06-19T00:58:21;21.10;99.90
43581;DHT22;29175;51.030;4.606;2023-06-19T01:00:48;21.20;99.90
43581;DHT22;29175;51.030;4.606;2023-06-19T01:03:14;21.10;99.90
43581;DHT22;29175;51.030;4.606;2023-06-19T01:05:40;21.20;99.90
43581;DHT22;29175;51.030;4.606;2023-06-19T01:10:53;21.20;99.90
43581;DHT22;29175;51.030;4.606;2023-06-19T01:13:25;21.20;99.90
43581;DHT22;29175;51.030;4.606;2023-06-19T01:15:53;21.30;99.90
43581;DHT22;29175;51.030;4.606;2023-06-19T01:18:20;21.00;99.90
43581;DHT22;29175;51.030;4.606;2023-06-19T01:20:46;21.10;99.90
43581;DHT22;29175;51.030;4.606;2023-06-19T01:23:11;21.00;99.90
43581;DHT22;29175;51.030;4.606;2023-06-19T01:25:38;21.10;99.90
43581;DHT22;29175;51.030;4.606;2023-06-19T01:28:07;21.20;99.90
43581;DHT22;29175;51.030;4.606;2023-06-19T01:30:36;21.30;99.90
43581;DHT22;29175;51.030;4.606;2023-06-19T01:33:16;21.30;99.90
43581;DHT22;29175;51.030;4.606;2023-06-19T01:35:46;21.20;99.90
43581;DHT22;29175;51.030;4.606;2023-06-19T01:38:13;21.30;99.90
43581;DHT22;29175;51.030;4.606;2023-06-19T01:40:40;21.30;99.90
43581;DHT22;29175;51.030;4.606;2023-06-19T01:43:08;21.20;99.90
43581;DHT22;29175;51.030;4.606;2023-06-19T01:45:34;21.30;99.90
43581;DHT22;29175;51.030;4.606;2023-06-19T01:48:00;21.10;99.90
43581;DHT22;29175;51.030;4.606;2023-06-19T01:50:26;20.90;99.90
43581;DHT22;29175;51.030;4.606;2023-06-19T01:52:52;20.90;99.90
43581;DHT22;29175;51.030;4.606;2023-06-19T01:55:18;20.90;99.90
43581;DHT22;29175;51.030;4.606;2023-06-19T01:57:44;20.80;99.90
43581;DHT22;29175;51.030;4.606;2023-06-19T02:00:12;20.80;99.90
43581;DHT22;29175;51.030;4.606;2023-06-19T02:02:38;20.60;99.90
43581;DHT22;29175;51.030;4.606;2023-06-19T02:05:04;20.90;99.90
43581;DHT22;29175;51.030;4.606;2023-06-19T02:07:30;20.80;99.90
43581;DHT22;29175;51.030;4.606;2023-06-19T02:09:56;20.60;99.90
43581;DHT22;29175;51.030;4.606;2023-06-19T02:12:23;20.60;99.90
43581;DHT22;29175;51.030;4.606;2023-06-19T02:14:48;20.70;99.90
43581;DHT22;29175;51.030;4.606;2023-06-19T02:17:14;20.80;99.90
43581;DHT22;29175;51.030;4.606;2023-06-19T02:19:41;20.70;99.90
43581;DHT22;29175;51.030;4.606;2023-06-19T02:22:08;20.70;99.90
43581;DHT22;29175;51.030;4.606;2023-06-19T02:24:33;20.80;99.90
43581;DHT22;29175;51.030;4.606;2023-06-19T02:26:59;20.70;99.90
43581;DHT22;29175;51.030;4.606;2023-06-19T02:29:26;20.90;99.90
43581;DHT22;29175;51.030;4.606;2023-06-19T02:31:51;20.90;99.90
43581;DHT22;29175;51.030;4.606;2023-06-19T02:34:17;21.00;99.90
43581;DHT22;29175;51.030;4.606;2023-06-19T02:36:43;21.00;99.90
43581;DHT22;29175;51.030;4.606;2023-06-19T02:39:09;21.00;99.90
43581;DHT22;29175;51.030;4.606;2023-06-19T02:41:35;21.00;99.90
43581;DHT22;29175;51.030;4.606;2023-06-19T02:44:01;21.10;99.90
43581;DHT22;29175;51.030;4.606;2023-06-19T02:46:27;21.20;99.90
43581;DHT22;29175;51.030;4.606;2023-06-19T02:48:52;21.30;99.90
43581;DHT22;29175;51.030;4.606;2023-06-19T02:51:18;21.20;99.90
43581;DHT22;29175;51.030;4.606;2023-06-19T02:53:44;21.30;99.90
43581;DHT22;29175;51.030;4.606;2023-06-19T02:56:11;21.00;99.90
43581;DHT22;29175;51.030;4.606;2023-06-19T02:58:37;21.00;99.90
43581;DHT22;29175;51.030;4.606;2023-06-19T03:01:04;20.90;99.90
43581;DHT22;29175;51.030;4.606;2023-06-19T03:03:32;21.00;99.90
43581;DHT22;29175;51.030;4.606;2023-06-19T03:06:05;21.10;99.90
43581;DHT22;29175;51.030;4.606;2023-06-19T03:08:33;21.10;99.90
43581;DHT22;29175;51.030;4.606;2023-06-19T03:10:59;21.30;99.90
43581;DHT22;29175;51.030;4.606;2023-06-19T03:13:25;21.10;99.90
43581;DHT22;29175;51.030;4.606;2023-06-19T03:15:51;21.00;99.90
43581;DHT22;29175;51.030;4.606;2023-06-19T03:18:16;20.80;99.90
43581;DHT22;29175;51.030;4.606;2023-06-19T03:20:43;21.00;99.90
43581;DHT22;29175;51.030;4.606;2023-06-19T03:23:09;21.30;99.90
43581;DHT22;29175;51.030;4.606;2023-06-19T03:25:34;21.40;99.90
43581;DHT22;29175;51.030;4.606;2023-06-19T03:28:01;21.30;99.90
43581;DHT22;29175;51.030;4.606;2023-06-19T03:30:29;21.40;99.90
43581;DHT22;29175;51.030;4.606;2023-06-19T03:32:55;21.50;99.90
43581;DHT22;29175;51.030;4.606;2023-06-19T03:35:21;21.40;99.90
43581;DHT22;29175;51.030;4.606;2023-06-19T03:37:46;21.30;99.90
43581;DHT22;29175;51.030;4.606;2023-06-19T03:40:12;21.20;99.90
43581;DHT22;29175;51.030;4.606;2023-06-19T03:42:40;21.20;99.90
43581;DHT22;29175;51.030;4.606;2023-06-19T03:45:06;21.30;99.90
43581;DHT22;29175;51.030;4.606;2023-06-19T03:47:32;21.40;99.90
43581;DHT22;29175;51.030;4.606;2023-06-19T03:49:57;21.40;99.90
43581;DHT22;29175;51.030;4.606;2023-06-19T03:52:23;21.30;99.90
43581;DHT22;29175;51.030;4.606;2023-06-19T03:54:50;21.30;99.90
43581;DHT22;29175;51.030;4.606;2023-06-19T03:57:16;21.30;99.90
43581;DHT22;29175;51.030;4.606;2023-06-19T03:59:41;21.20;99.90
43581;DHT22;29175;51.030;4.606;2023-06-19T04:02:07;21.30;99.90
43581;DHT22;29175;51.030;4.606;2023-06-19T04:04:33;21.30;99.90
43581;DHT22;29175;51.030;4.606;2023-06-19T04:06:58;21.10;99.90
43581;DHT22;29175;51.030;4.606;2023-06-19T04:09:26;21.30;99.90
43581;DHT22;29175;51.030;4.606;2023-06-19T04:11:52;21.30;99.90
43581;DHT22;29175;51.030;4.606;2023-06-19T04:14:18;21.40;99.90
43581;DHT22;29175;51.030;4.606;2023-06-19T04:16:43;21.50;99.90
43581;DHT22;29175;51.030;4.606;2023-06-19T04:19:09;21.40;99.90
43581;DHT22;29175;51.030;4.606;2023-06-19T04:21:34;21.20;99.90
43581;DHT22;29175;51.030;4.606;2023-06-19T04:24:00;21.30;99.90
43581;DHT22;29175;51.030;4.606;2023-06-19T04:26:26;21.10;99.90
43581;DHT22;29175;51.030;4.606;2023-06-19T04:28:51;21.10;99.90
43581;DHT22;29175;51.030;4.606;2023-06-19T04:31:17;21.20;99.90
43581;DHT22;29175;51.030;4.606;2023-06-19T04:33:46;21.20;99.90
43581;DHT22;29175;51.030;4.606;2023-06-19T04:36:11;21.30;99.90
43581;DHT22;29175;51.030;4.606;2023-06-19T04:38:37;21.40;99.90
43581;DHT22;29175;51.030;4.606;2023-06-19T04:41:02;21.30;99.90
43581;DHT22;29175;51.030;4.606;2023-06-19T04:43:28;21.40;99.90
43581;DHT22;29175;51.030;4.606;2023-06-19T04:45:54;21.50;99.90
43581;DHT22;29175;51.030;4.606;2023-06-19T04:48:20;21.30;99.90
43581;DHT22;29175;51.030;4.606;2023-06-19T04:50:50;21.30;99.90
43581;DHT22;29175;51.030;4.606;2023-06-19T04:53:15;21.20;99.90
43581;DHT22;29175;51.030;4.606;2023-06-19T04:55:41;21.20;99.90
43581;DHT22;29175;51.030;4.606;2023-06-19T04:58:08;21.40;99.90
43581;DHT22;29175;51.030;4.606;2023-06-19T05:00:34;21.60;99.90
43581;DHT22;29175;51.030;4.606;2023-06-19T05:03:00;21.70;99.90
43581;DHT22;29175;51.030;4.606;2023-06-19T05:05:27;21.90;99.90
43581;DHT22;29175;51.030;4.606;2023-06-19T05:07:53;22.30;99.90
43581;DHT22;29175;51.030;4.606;2023-06-19T05:10:19;22.50;99.90
43581;DHT22;29175;51.030;4.606;2023-06-19T05:12:44;22.60;99.80
43581;DHT22;29175;51.030;4.606;2023-06-19T05:15:10;22.80;99.80
43581;DHT22;29175;51.030;4.606;2023-06-19T05:17:36;22.90;99.10
43581;DHT22;29175;51.030;4.606;2023-06-19T05:20:04;22.70;98.80
43581;DHT22;29175;51.030;4.606;2023-06-19T05:22:32;22.80;98.70
43581;DHT22;29175;51.030;4.606;2023-06-19T05:24:59;22.50;98.70
43581;DHT22;29175;51.030;4.606;2023-06-19T05:27:25;22.50;98.80
43581;DHT22;29175;51.030;4.606;2023-06-19T05:29:51;22.00;99.20
43581;DHT22;29175;51.030;4.606;2023-06-19T05:32:16;22.20;99.30
43581;DHT22;29175;51.030;4.606;2023-06-19T05:34:42;22.30;98.80
43581;DHT22;29175;51.030;4.606;2023-06-19T05:37:07;22.50;98.40
43581;DHT22;29175;51.030;4.606;2023-06-19T05:39:33;22.50;98.60
43581;DHT22;29175;51.030;4.606;2023-06-19T05:41:59;22.40;98.60
43581;DHT22;29175;51.030;4.606;2023-06-19T05:44:24;22.50;98.10
43581;DHT22;29175;51.030;4.606;2023-06-19T05:46:50;22.60;97.70
43581;DHT22;29175;51.030;4.606;2023-06-19T05:49:17;22.80;97.50
43581;DHT22;29175;51.030;4.606;2023-06-19T05:51:42;23.00;97.40
43581;DHT22;29175;51.030;4.606;2023-06-19T05:54:08;23.20;96.80
43581;DHT22;29175;51.030;4.606;2023-06-19T05:56:35;23.30;96.50
43581;DHT22;29175;51.030;4.606;2023-06-19T05:59:01;23.10;96.60
43581;DHT22;29175;51.030;4.606;2023-06-19T06:01:28;22.80;96.70
43581;DHT22;29175;51.030;4.606;2023-06-19T06:03:54;22.60;97.10
43581;DHT22;29175;51.030;4.606;2023-06-19T06:06:20;22.50;97.30
43581;DHT22;29175;51.030;4.606;2023-06-19T06:08:46;22.50;97.60
43581;DHT22;29175;51.030;4.606;2023-06-19T06:11:12;22.50;97.60
43581;DHT22;29175;51.030;4.606;2023-06-19T06:13:37;22.50;97.70
43581;DHT22;29175;51.030;4.606;2023-06-19T06:16:03;22.60;97.50
43581;DHT22;29175;51.030;4.606;2023-06-19T06:18:29;22.50;97.50
43581;DHT22;29175;51.030;4.606;2023-06-19T06:20:54;22.20;97.80
43581;DHT22;29175;51.030;4.606;2023-06-19T06:23:20;22.20;97.80
43581;DHT22;29175;51.030;4.606;2023-06-19T06:25:46;22.10;97.80
43581;DHT22;29175;51.030;4.606;2023-06-19T06:28:12;22.00;98.10
43581;DHT22;29175;51.030;4.606;2023-06-19T06:30:37;22.10;98.30
43581;DHT22;29175;51.030;4.606;2023-06-19T06:33:04;22.20;98.40
43581;DHT22;29175;51.030;4.606;2023-06-19T06:35:30;22.30;97.90
43581;DHT22;29175;51.030;4.606;2023-06-19T06:37:55;22.40;97.90
43581;DHT22;29175;51.030;4.606;2023-06-19T06:40:21;22.70;96.70
43581;DHT22;29175;51.030;4.606;2023-06-19T06:42:47;22.80;97.20
43581;DHT22;29175;51.030;4.606;2023-06-19T06:45:12;23.20;96.40
43581;DHT22;29175;51.030;4.606;2023-06-19T06:47:38;23.20;96.30
43581;DHT22;29175;51.030;4.606;2023-06-19T06:50:06;23.40;95.70
43581;DHT22;29175;51.030;4.606;2023-06-19T06:52:32;23.00;95.50
43581;DHT22;29175;51.030;4.606;2023-06-19T06:54:58;22.90;96.40
43581;DHT22;29175;51.030;4.606;2023-06-19T06:57:24;23.40;95.60
43581;DHT22;29175;51.030;4.606;2023-06-19T06:59:50;23.80;94.70
43581;DHT22;29175;51.030;4.606;2023-06-19T07:02:16;23.90;94.40
43581;DHT22;29175;51.030;4.606;2023-06-19T07:04:41;23.90;94.40
43581;DHT22;29175;51.030;4.606;2023-06-19T07:07:07;23.80;93.70
43581;DHT22;29175;51.030;4.606;2023-06-19T07:09:34;23.40;94.00
43581;DHT22;29175;51.030;4.606;2023-06-19T07:12:00;23.10;94.10
43581;DHT22;29175;51.030;4.606;2023-06-19T07:14:30;23.10;94.60
43581;DHT22;29175;51.030;4.606;2023-06-19T07:16:56;22.90;94.50
43581;DHT22;29175;51.030;4.606;2023-06-19T07:19:23;23.00;94.60
43581;DHT22;29175;51.030;4.606;2023-06-19T07:21:52;23.40;94.50
43581;DHT22;29175;51.030;4.606;2023-06-19T07:24:17;25.10;92.90
43581;DHT22;29175;51.030;4.606;2023-06-19T07:26:45;26.80;90.10
43581;DHT22;29175;51.030;4.606;2023-06-19T07:29:11;28.00;86.90
43581;DHT22;29175;51.030;4.606;2023-06-19T07:31:36;28.80;84.20
43581;DHT22;29175;51.030;4.606;2023-06-19T07:34:02;28.80;83.80
43581;DHT22;29175;51.030;4.606;2023-06-19T07:36:27;28.80;83.40
43581;DHT22;29175;51.030;4.606;2023-06-19T07:38:54;27.90;83.10
43581;DHT22;29175;51.030;4.606;2023-06-19T07:41:20;28.20;84.00
43581;DHT22;29175;51.030;4.606;2023-06-19T07:43:46;28.20;83.20
43581;DHT22;29175;51.030;4.606;2023-06-19T07:46:12;28.50;82.50
43581;DHT22;29175;51.030;4.606;2023-06-19T07:48:37;28.10;83.20
43581;DHT22;29175;51.030;4.606;2023-06-19T07:51:03;28.30;83.10
43581;DHT22;29175;51.030;4.606;2023-06-19T07:53:28;28.20;82.70
43581;DHT22;29175;51.030;4.606;2023-06-19T07:55:54;27.90;83.30
43581;DHT22;29175;51.030;4.606;2023-06-19T07:58:20;27.90;83.50
43581;DHT22;29175;51.030;4.606;2023-06-19T08:00:45;28.10;82.20
43581;DHT22;29175;51.030;4.606;2023-06-19T08:03:11;28.10;81.90
43581;DHT22;29175;51.030;4.606;2023-06-19T08:05:37;28.00;82.50
43581;DHT22;29175;51.030;4.606;2023-06-19T08:08:02;27.70;83.90
43581;DHT22;29175;51.030;4.606;2023-06-19T08:10:28;27.30;85.90
43581;DHT22;29175;51.030;4.606;2023-06-19T08:12:54;26.80;86.70
43581;DHT22;29175;51.030;4.606;2023-06-19T08:15:19;26.40;87.50
43581;DHT22;29175;51.030;4.606;2023-06-19T08:17:45;27.10;87.00
43581;DHT22;29175;51.030;4.606;2023-06-19T08:20:11;27.90;83.40
43581;DHT22;29175;51.030;4.606;2023-06-19T08:22:36;29.40;80.40
43581;DHT22;29175;51.030;4.606;2023-06-19T08:25:03;31.10;76.30
43581;DHT22;29175;51.030;4.606;2023-06-19T08:27:28;32.70;72.50
43581;DHT22;29175;51.030;4.606;2023-06-19T08:29:55;33.30;70.70
43581;DHT22;29175;51.030;4.606;2023-06-19T08:32:20;33.90;69.20
43581;DHT22;29175;51.030;4.606;2023-06-19T08:34:46;33.80;69.40
43581;DHT22;29175;51.030;4.606;2023-06-19T08:37:11;34.50;68.10
43581;DHT22;29175;51.030;4.606;2023-06-19T08:39:37;34.40;66.90
43581;DHT22;29175;51.030;4.606;2023-06-19T08:42:06;34.30;69.00
43581;DHT22;29175;51.030;4.606;2023-06-19T08:44:34;33.90;67.80
43581;DHT22;29175;51.030;4.606;2023-06-19T08:47:01;34.00;68.50
43581;DHT22;29175;51.030;4.606;2023-06-19T08:49:30;34.00;67.90
43581;DHT22;29175;51.030;4.606;2023-06-19T08:51:56;34.30;67.00
43581;DHT22;29175;51.030;4.606;2023-06-19T08:54:22;34.30;67.20
43581;DHT22;29175;51.030;4.606;2023-06-19T08:56:48;33.80;69.70
43581;DHT22;29175;51.030;4.606;2023-06-19T08:59:15;34.90;66.90
43581;DHT22;29175;51.030;4.606;2023-06-19T09:01:53;35.80;64.40
43581;DHT22;29175;51.030;4.606;2023-06-19T09:04:20;36.70;62.90
43581;DHT22;29175;51.030;4.606;2023-06-19T09:06:54;36.40;62.70
43581;DHT22;29175;51.030;4.606;2023-06-19T09:09:20;36.50;63.90
43581;DHT22;29175;51.030;4.606;2023-06-19T09:12:05;36.50;63.70
43581;DHT22;29175;51.030;4.606;2023-06-19T09:14:35;35.80;63.40
43581;DHT22;29175;51.030;4.606;2023-06-19T09:17:02;35.50;65.60
43581;DHT22;29175;51.030;4.606;2023-06-19T09:19:28;35.80;64.70
43581;DHT22;29175;51.030;4.606;2023-06-19T09:21:59;35.30;65.10
43581;DHT22;29175;51.030;4.606;2023-06-19T09:24:39;34.50;66.70
43581;DHT22;29175;51.030;4.606;2023-06-19T09:27:13;34.20;66.70
43581;DHT22;29175;51.030;4.606;2023-06-19T09:29:40;34.60;66.30
43581;DHT22;29175;51.030;4.606;2023-06-19T09:32:41;34.60;66.20
43581;DHT22;29175;51.030;4.606;2023-06-19T09:35:07;34.60;66.80
43581;DHT22;29175;51.030;4.606;2023-06-19T09:37:33;34.30;67.10
43581;DHT22;29175;51.030;4.606;2023-06-19T09:40:01;34.40;68.10
43581;DHT22;29175;51.030;4.606;2023-06-19T09:42:33;34.00;67.60
43581;DHT22;29175;51.030;4.606;2023-06-19T09:45:01;34.00;67.70
43581;DHT22;29175;51.030;4.606;2023-06-19T09:47:39;34.10;67.40
43581;DHT22;29175;51.030;4.606;2023-06-19T09:50:06;34.10;68.00
43581;DHT22;29175;51.030;4.606;2023-06-19T09:52:32;34.00;67.60
43581;DHT22;29175;51.030;4.606;2023-06-19T09:55:02;33.40;68.80
43581;DHT22;29175;51.030;4.606;2023-06-19T09:57:28;33.10;68.60
43581;DHT22;29175;51.030;4.606;2023-06-19T09:59:56;33.10;69.30
43581;DHT22;29175;51.030;4.606;2023-06-19T10:02:25;32.70;69.50
43581;DHT22;29175;51.030;4.606;2023-06-19T10:04:53;32.00;70.60
43581;DHT22;29175;51.030;4.606;2023-06-19T10:07:22;31.50;71.10
43581;DHT22;29175;51.030;4.606;2023-06-19T10:15:29;32.40;70.50
43581;DHT22;29175;51.030;4.606;2023-06-19T10:18:05;32.00;70.80
43581;DHT22;29175;51.030;4.606;2023-06-19T10:20:32;32.00;70.10
43581;DHT22;29175;51.030;4.606;2023-06-19T10:25:29;31.60;72.20
43581;DHT22;29175;51.030;4.606;2023-06-19T10:27:57;32.10;71.40
43581;DHT22;29175;51.030;4.606;2023-06-19T10:30:23;33.30;70.00
43581;DHT22;29175;51.030;4.606;2023-06-19T10:32:49;34.40;66.60
43581;DHT22;29175;51.030;4.606;2023-06-19T10:35:16;35.30;65.40
43581;DHT22;29175;51.030;4.606;2023-06-19T10:37:43;35.80;64.20
43581;DHT22;29175;51.030;4.606;2023-06-19T10:40:10;36.50;64.10
43581;DHT22;29175;51.030;4.606;2023-06-19T10:42:45;37.00;62.60
43581;DHT22;29175;51.030;4.606;2023-06-19T10:45:13;38.00;60.60
43581;DHT22;29175;51.030;4.606;2023-06-19T10:47:39;37.40;61.60
43581;DHT22;29175;51.030;4.606;2023-06-19T10:50:12;37.20;61.70
43581;DHT22;29175;51.030;4.606;2023-06-19T10:52:44;36.30;61.60
43581;DHT22;29175;51.030;4.606;2023-06-19T10:55:12;35.40;65.50
43581;DHT22;29175;51.030;4.606;2023-06-19T10:57:38;35.80;63.90
43581;DHT22;29175;51.030;4.606;2023-06-19T11:00:05;36.20;62.00
43581;DHT22;29175;51.030;4.606;2023-06-19T11:02:37;36.90;62.10
43581;DHT22;29175;51.030;4.606;2023-06-19T11:05:05;37.40;62.00
43581;DHT22;29175;51.030;4.606;2023-06-19T11:07:32;37.40;60.00
43581;DHT22;29175;51.030;4.606;2023-06-19T11:09:58;38.20;59.60
43581;DHT22;29175;51.030;4.606;2023-06-19T11:12:23;38.10;59.70
43581;DHT22;29175;51.030;4.606;2023-06-19T11:14:49;38.20;59.70
43581;DHT22;29175;51.030;4.606;2023-06-19T11:17:16;37.00;60.30
43581;DHT22;29175;51.030;4.606;2023-06-19T11:19:44;37.00;61.10
43581;DHT22;29175;51.030;4.606;2023-06-19T11:22:10;37.30;59.70
43581;DHT22;29175;51.030;4.606;2023-06-19T11:24:37;38.00;59.70
43581;DHT22;29175;51.030;4.606;2023-06-19T11:27:16;38.00;60.20
43581;DHT22;29175;51.030;4.606;2023-06-19T11:29:42;38.00;59.50
43581;DHT22;29175;51.030;4.606;2023-06-19T11:32:17;38.00;58.70
43581;DHT22;29175;51.030;4.606;2023-06-19T11:34:48;38.30;59.00
43581;DHT22;29175;51.030;4.606;2023-06-19T11:37:15;38.50;57.40
43581;DHT22;29175;51.030;4.606;2023-06-19T11:39:43;38.30;57.70
43581;DHT22;29175;51.030;4.606;2023-06-19T11:42:09;38.20;58.10
43581;DHT22;29175;51.030;4.606;2023-06-19T11:44:35;38.00;58.60
43581;DHT22;29175;51.030;4.606;2023-06-19T11:47:00;38.00;58.30
43581;DHT22;29175;51.030;4.606;2023-06-19T11:49:26;38.40;58.10
43581;DHT22;29175;51.030;4.606;2023-06-19T11:51:53;38.60;56.50
43581;DHT22;29175;51.030;4.606;2023-06-19T11:54:19;38.00;58.40
43581;DHT22;29175;51.030;4.606;2023-06-19T11:56:45;37.90;58.40
43581;DHT22;29175;51.030;4.606;2023-06-19T11:59:13;37.60;58.60
43581;DHT22;29175;51.030;4.606;2023-06-19T12:01:40;37.40;57.40
43581;DHT22;29175;51.030;4.606;2023-06-19T12:04:05;36.00;60.70
43581;DHT22;29175;51.030;4.606;2023-06-19T12:06:31;35.60;61.00
43581;DHT22;29175;51.030;4.606;2023-06-19T12:08:57;35.50;60.20
43581;DHT22;29175;51.030;4.606;2023-06-19T12:11:23;35.10;59.80
43581;DHT22;29175;51.030;4.606;2023-06-19T12:13:50;34.40;63.10
43581;DHT22;29175;51.030;4.606;2023-06-19T12:16:15;34.10;63.80
43581;DHT22;29175;51.030;4.606;2023-06-19T12:18:41;33.50;64.60
43581;DHT22;29175;51.030;4.606;2023-06-19T12:21:07;33.00;64.90
43581;DHT22;29175;51.030;4.606;2023-06-19T12:23:33;32.70;65.60
43581;DHT22;29175;51.030;4.606;2023-06-19T12:25:59;32.40;66.10
43581;DHT22;29175;51.030;4.606;2023-06-19T12:28:25;32.10;67.80
43581;DHT22;29175;51.030;4.606;2023-06-19T12:30:52;31.60;66.90
43581;DHT22;29175;51.030;4.606;2023-06-19T12:33:19;30.80;70.50
43581;DHT22;29175;51.030;4.606;2023-06-19T12:35:46;30.40;70.10
43581;DHT22;29175;51.030;4.606;2023-06-19T12:38:12;30.10;68.50
43581;DHT22;29175;51.030;4.606;2023-06-19T12:40:38;29.30;71.40
43581;DHT22;29175;51.030;4.606;2023-06-19T12:43:04;29.50;73.40
43581;DHT22;29175;51.030;4.606;2023-06-19T12:45:30;29.50;73.20
43581;DHT22;29175;51.030;4.606;2023-06-19T12:47:57;29.50;72.70
43581;DHT22;29175;51.030;4.606;2023-06-19T12:50:23;29.50;72.90
43581;DHT22;29175;51.030;4.606;2023-06-19T12:52:49;29.70;72.30
43581;DHT22;29175;51.030;4.606;2023-06-19T12:55:15;29.90;70.70
43581;DHT22;29175;51.030;4.606;2023-06-19T12:57:41;29.60;71.80
43581;DHT22;29175;51.030;4.606;2023-06-19T13:00:13;29.70;70.30
43581;DHT22;29175;51.030;4.606;2023-06-19T13:02:40;29.80;70.00
43581;DHT22;29175;51.030;4.606;2023-06-19T13:05:06;29.80;72.30
43581;DHT22;29175;51.030;4.606;2023-06-19T13:07:32;29.70;70.50
43581;DHT22;29175;51.030;4.606;2023-06-19T13:09:58;29.70;69.60
43581;DHT22;29175;51.030;4.606;2023-06-19T13:12:24;29.40;72.00
43581;DHT22;29175;51.030;4.606;2023-06-19T13:14:50;29.40;73.10
43581;DHT22;29175;51.030;4.606;2023-06-19T13:17:15;29.50;72.50
43581;DHT22;29175;51.030;4.606;2023-06-19T13:19:41;29.40;71.90
43581;DHT22;29175;51.030;4.606;2023-06-19T13:22:07;29.30;72.00
43581;DHT22;29175;51.030;4.606;2023-06-19T13:24:32;29.30;69.70
43581;DHT22;29175;51.030;4.606;2023-06-19T13:26:58;28.50;72.00
43581;DHT22;29175;51.030;4.606;2023-06-19T13:29:24;28.80;70.90
43581;DHT22;29175;51.030;4.606;2023-06-19T13:31:49;29.10;70.30
43581;DHT22;29175;51.030;4.606;2023-06-19T13:34:15;29.10;72.50
43581;DHT22;29175;51.030;4.606;2023-06-19T13:36:41;29.40;71.50
43581;DHT22;29175;51.030;4.606;2023-06-19T13:39:07;29.60;71.00
43581;DHT22;29175;51.030;4.606;2023-06-19T13:41:33;29.80;71.10
43581;DHT22;29175;51.030;4.606;2023-06-19T13:44:00;29.80;69.80
43581;DHT22;29175;51.030;4.606;2023-06-19T13:46:28;29.70;71.10
43581;DHT22;29175;51.030;4.606;2023-06-19T13:48:54;29.50;71.50
43581;DHT22;29175;51.030;4.606;2023-06-19T13:51:21;29.90;71.20
43581;DHT22;29175;51.030;4.606;2023-06-19T13:53:47;30.00;69.70
43581;DHT22;29175;51.030;4.606;2023-06-19T13:56:13;29.90;69.50
43581;DHT22;29175;51.030;4.606;2023-06-19T13:58:39;30.00;70.10
43581;DHT22;29175;51.030;4.606;2023-06-19T14:01:05;29.90;70.50
43581;DHT22;29175;51.030;4.606;2023-06-19T14:03:32;29.70;71.00
43581;DHT22;29175;51.030;4.606;2023-06-19T14:05:57;30.10;70.90
43581;DHT22;29175;51.030;4.606;2023-06-19T14:08:23;30.30;69.10
43581;DHT22;29175;51.030;4.606;2023-06-19T14:10:49;30.60;65.80
43581;DHT22;29175;51.030;4.606;2023-06-19T14:13:15;30.60;68.00
43581;DHT22;29175;51.030;4.606;2023-06-19T14:15:41;30.80;68.10
43581;DHT22;29175;51.030;4.606;2023-06-19T14:18:06;30.70;66.80
43581;DHT22;29175;51.030;4.606;2023-06-19T14:20:32;30.30;69.10
43581;DHT22;29175;51.030;4.606;2023-06-19T14:22:58;29.90;69.20
43581;DHT22;29175;51.030;4.606;2023-06-19T14:25:23;30.40;69.30
43581;DHT22;29175;51.030;4.606;2023-06-19T14:27:49;29.90;69.60
43581;DHT22;29175;51.030;4.606;2023-06-19T14:30:15;29.80;72.20
43581;DHT22;29175;51.030;4.606;2023-06-19T14:32:40;30.40;71.20
43581;DHT22;29175;51.030;4.606;2023-06-19T14:35:06;30.80;69.90
43581;DHT22;29175;51.030;4.606;2023-06-19T14:37:32;30.80;68.40
43581;DHT22;29175;51.030;4.606;2023-06-19T14:39:58;31.00;68.40
43581;DHT22;29175;51.030;4.606;2023-06-19T14:42:24;31.00;68.10
43581;DHT22;29175;51.030;4.606;2023-06-19T14:44:49;30.50;67.40
43581;DHT22;29175;51.030;4.606;2023-06-19T14:47:15;30.40;67.70
43581;DHT22;29175;51.030;4.606;2023-06-19T14:49:41;30.70;67.00
43581;DHT22;29175;51.030;4.606;2023-06-19T14:52:06;30.50;68.20
43581;DHT22;29175;51.030;4.606;2023-06-19T14:54:32;30.10;67.10
43581;DHT22;29175;51.030;4.606;2023-06-19T14:56:58;30.10;68.30
43581;DHT22;29175;51.030;4.606;2023-06-19T14:59:24;30.10;69.50
43581;DHT22;29175;51.030;4.606;2023-06-19T15:01:50;30.40;68.60
43581;DHT22;29175;51.030;4.606;2023-06-19T15:04:15;30.50;67.70
43581;DHT22;29175;51.030;4.606;2023-06-19T15:06:41;30.80;70.00
43581;DHT22;29175;51.030;4.606;2023-06-19T15:09:07;30.90;70.30
43581;DHT22;29175;51.030;4.606;2023-06-19T15:11:33;30.60;68.60
43581;DHT22;29175;51.030;4.606;2023-06-19T15:13:59;30.80;68.80
43581;DHT22;29175;51.030;4.606;2023-06-19T15:16:25;30.70;67.70
43581;DHT22;29175;51.030;4.606;2023-06-19T15:18:51;30.60;67.10
43581;DHT22;29175;51.030;4.606;2023-06-19T15:21:17;30.60;68.40
43581;DHT22;29175;51.030;4.606;2023-06-19T15:23:43;30.30;69.80
43581;DHT22;29175;51.030;4.606;2023-06-19T15:26:09;30.40;68.20
43581;DHT22;29175;51.030;4.606;2023-06-19T15:28:35;29.90;69.70
43581;DHT22;29175;51.030;4.606;2023-06-19T15:31:02;29.90;71.20
43581;DHT22;29175;51.030;4.606;2023-06-19T15:33:27;29.80;69.70
43581;DHT22;29175;51.030;4.606;2023-06-19T15:35:53;30.10;71.70
43581;DHT22;29175;51.030;4.606;2023-06-19T15:38:19;30.50;71.80